NCAR-RAP Real-Time Weather Data

Output produced by METARs form (12 August 2020  18:30 UTC)
found at http://weather.rap.ucar.edu/surface/
 
KGGG 121802Z 07012KT 10SM FEW014 BKN025 OVC037 30/24 A2999 RMK AO2 LTG DSNT NW T03000244
KGGG 121753Z 07011KT 10SM SCT025 BKN037 31/24 A3000 RMK AO2 LTG DSNT NW SLP151 60000 T03110244 10317 20256 51008
KGGG 121729Z 11007KT 10SM SCT022 SCT028 BKN033 31/24 A3000 RMK AO2 LTG DSNT N T03110239
KGGG 121653Z 10007KT 10SM BKN027 BKN036 29/24 A3000 RMK AO2 LTG DSNT N AND NW RAB24E37 SLP151 P0000 T02940244
KGGG 121623Z 07005KT 10SM BKN024 OVC080 29/23 A3001 RMK AO2 T02940228
KGGG 121553Z 12003KT 10SM FEW024 OVC080 29/23 A3001 RMK AO2 SLP153 T02940228
KGGG 121453Z 22008KT 10SM BKN095 28/23 A2998 RMK AO2 SLP144 T02830233 51012
KGGG 121353Z 22008KT 10SM CLR 27/23 A2998 RMK AO2 SLP143 T02670233
KGGG 121323Z 21006KT 10SM SCT015 26/23 A2998 RMK AO2 T02610233
KGGG 121311Z 20006KT 10SM BKN015 26/23 A2997 RMK AO2 T02610233
KGGG 121253Z 18007KT 10SM SCT015 26/23 A2997 RMK AO2 SLP139 T02560233
KGGG 121153Z 21007KT 10SM CLR 26/23 A2994 RMK AO2 SLP130 T02610233 10283 20261 53007
KGGG 121053Z AUTO 21011KT 10SM CLR 27/23 A2992 RMK AO2 SLP121 T02670233 TSNO
KGGG 120953Z AUTO 21013KT 10SM CLR 27/23 A2991 RMK AO2 SLP121 T02720233 TSNO
KGGG 120853Z AUTO 19010KT 10SM CLR 27/23 A2992 RMK AO2 SLP123 T02720233 58004
KGGG 120753Z AUTO 18007KT 10SM SCT070 SCT090 28/23 A2994 RMK AO2 SLP128 T02780233
KGGG 120653Z AUTO 18010KT 10SM CLR 28/23 A2992 RMK AO2 SLP124 T02830228
KGGG 120553Z AUTO 18009KT 10SM CLR 28/23 A2993 RMK AO2 SLP127 T02830228 10350 20283 403670250 50000
KGGG 120453Z AUTO 17008KT 10SM CLR 29/22 A2995 RMK AO2 SLP132 T02890222
KGGG 120353Z AUTO 16007KT 10SM CLR 29/23 A2993 RMK AO2 SLP125 T02890228
KGGG 120253Z AUTO 11006KT 10SM BKN070 BKN085 31/23 A2993 RMK AO2 SLP127 T03060228 53013
KGGG 120153Z AUTO 09004KT 10SM BKN075 BKN090 31/22 A2992 RMK AO2 SLP122 T03110222
KGGG 120053Z AUTO 12004KT 10SM BKN075 33/21 A2990 RMK AO2 SLP115 T03280211
KGGG 112353Z AUTO 12007KT 10SM FEW065 35/21 A2989 RMK AO2 SLP115 T03500211 10367 20339 56010
KGGG 112253Z AUTO 13009KT 10SM SCT060 36/21 A2989 RMK AO2 SLP114 T03610206
KGGG 112153Z 22007KT 10SM FEW090 36/21 A2991 RMK AO2 SLP118 T03610206